Aeroporto :
LOGIN :

Iscrizione | Disclaimer

   EN    FR    IT 

 










Sommario :    VFR   VFR Marginale   IFR   IFR Intensivo   IFR Molto Intensivo
Visibilità : 
Base nubi : 
>= 8 km
>= 3000ft
5 / 8 km
1000 / 3000 ft
1500m / 5 km
500 / 1000 ft
800 / 1500m
200 / 500 ft
< 800m
< 200 ft
Simboli :   Temporali  Nebbia  Neve Forte  Precipitazioni Forti  Vento > 20 kt
SIGMETs :   Varie  Temporali  Ghiacco  Turbolenza  Onda orograficha  Ceneri Vulcaniche






- Altitudine del aeroporto : 285 ft
- Codice IATA : GOZ


LBGO - Gorna Oryahovitsa

ULTIMO METAR :
  • 240900Z AUTO VRB04KT 9999 SCT019/// SCT022/// BKN028/// 17/12 Q1006 NOSIG

METARs OBSOLETI :
  • 240830Z AUTO 33005KT 280V030 9999 BKN016/// BKN020/// 17/13 Q1006 NOSIG
  • 240800Z AUTO 32006KT 290V360 9999 SCT014/// 16/13 Q1006 NOSIG
  • 240730Z AUTO 31006KT 270V330 9999 FEW014/// 15/12 Q1006 NOSIG
  • 240700Z AUTO 31005KT 280V340 9999 BKN013/// 14/11 Q1006 NOSIG
  • 240630Z AUTO 29005KT 250V350 9999 FEW014/// 14/11 Q1005 NOSIG
  • 240600Z AUTO 33004KT 270V010 9999 BKN012/// 13/11 Q1005 NOSIG
  • 240530Z AUTO 29004KT 260V320 9999 SCT049/// OVC082/// 13/11 Q1005 NOSIG
  • 240500Z AUTO 30005KT 280V340 9999 FEW066/// OVC077/// 12/10 Q1005 NOSIG
  • 240430Z AUTO 29003KT 9999 OVC078/// 11/10 Q1005 NOSIG

TAF TAF LBGO
Valido dal 24 a 06 ore il 25 a 06 ore UTC


240500Z 2406/2506 34010KT 9999 SCT030 BKN060
PROB40
TEMPO 2412/2416 5000 TSRA FEW030CB BKN040
BECMG 2416/2418 VRB04KT
PROB40
TEMPO 2420/2504 3000 RA BKN020 OVC050



MetMap, La meteo Aeronautica in un colpo d'occhio ! - Copyright ORBIFLY Dicembre 2007 - Disclaimer

ORBIFLY MET'MAP TEAM :

Programmazione e sviluppo : Alexandra Zaïnal
Concezione : Baudouin d'Aumeries
Supporto tecnico e logistico : Manuel Goepfert
Aiuto : Marc-Olivier Méhu
Aiuto per la traduzione : Arnaldo La Scala




FONTI E CREDITI :

   NOAA